Time;durP1;ratioP1;P1;durP2;ratioP2;P2;SDS_P1;SDS_P2;PMS_P1;PMS_P2;Temp;Humidity;BMP_temperature;BMP_pressure;BME280_temperature;BME280_humidity;BME280_pressure;Samples;Min_cycle;Max_cycle;Signal;HPM_P1;HPM_P2
2022/04/01 00:00:01;;;;;;;0.20;0.10;;;9.80;99.90;;;;;;25385796;23;20168;-75
2022/04/01 00:10:05;;;;;;;0.20;0.10;;;9.70;99.90;;;;;;25411092;23;20270;-77
2022/04/01 00:20:13;;;;;;;0.20;0.00;;;9.60;99.90;;;;;;25410865;23;20254;-76
2022/04/01 00:30:17;;;;;;;0.20;0.00;;;9.50;99.90;;;;;;25389496;23;20263;-75
2022/04/01 00:40:23;;;;;;;0.20;0.10;;;9.50;99.90;;;;;;25415022;23;20231;-77
2022/04/01 00:50:27;;;;;;;0.20;0.00;;;9.30;99.90;;;;;;25398534;23;20219;-75
2022/04/01 01:00:33;;;;;;;0.20;0.10;;;9.10;99.90;;;;;;25386014;23;20183;-75
2022/04/01 01:10:37;;;;;;;0.20;0.10;;;8.80;99.90;;;;;;25407985;23;20199;-76
2022/04/01 01:20:43;;;;;;;0.20;0.10;;;8.90;99.90;;;;;;25413387;23;20188;-75
2022/04/01 01:30:49;;;;;;;0.20;0.07;;;9.00;99.90;;;;;;25411442;23;20306;-76
2022/04/01 01:40:53;;;;;;;0.20;0.10;;;9.40;99.90;;;;;;25424279;23;20316;-78
2022/04/01 02:01:20;;;;;;;0.20;0.10;;;9.50;99.90;;;;;;25402643;23;20226;-69
2022/04/01 02:11:26;;;;;;;0.20;0.10;;;9.60;99.90;;;;;;25406233;23;20405;-68
2022/04/01 02:21:30;;;;;;;0.20;0.10;;;9.40;99.90;;;;;;25404941;23;20195;-69
2022/04/01 02:31:35;;;;;;;0.20;0.10;;;9.50;99.90;;;;;;25406500;23;20282;-69
2022/04/01 02:41:39;;;;;;;0.20;0.10;;;9.40;99.90;;;;;;25404605;23;20183;-69
2022/04/01 02:51:46;;;;;;;0.20;0.10;;;9.30;99.90;;;;;;25381980;23;20215;-69
2022/04/01 03:01:50;;;;;;;0.20;0.10;;;8.90;99.90;;;;;;25403798;23;20168;-69
2022/04/01 03:11:56;;;;;;;0.20;0.10;;;8.50;99.90;;;;;;25404175;23;20199;-68
2022/04/01 03:22:00;;;;;;;0.27;0.20;;;8.60;99.90;;;;;;25407811;23;20335;-69
2022/04/01 03:32:06;;;;;;;0.20;0.10;;;8.90;99.90;;;;;;25409504;23;20219;-69
2022/04/01 03:42:10;;;;;;;0.20;0.10;;;8.40;99.90;;;;;;25412383;23;20156;-69
2022/04/01 03:52:16;;;;;;;0.20;0.10;;;8.40;99.90;;;;;;25409730;23;20211;-68
2022/04/01 04:02:21;;;;;;;0.20;0.10;;;8.50;99.90;;;;;;25385533;23;20190;-63
2022/04/01 04:12:30;;;;;;;0.20;0.10;;;8.50;99.90;;;;;;25408765;23;20210;-63
2022/04/01 04:22:50;;;;;;;0.20;0.10;;;8.50;99.90;;;;;;25408611;23;20172;-62
2022/04/01 04:32:58;;;;;;;0.20;0.10;;;8.40;99.90;;;;;;25382413;23;20211;-63
2022/04/01 04:43:03;;;;;;;0.20;0.10;;;8.40;99.90;;;;;;25407971;23;20179;-62
2022/04/01 04:53:09;;;;;;;0.20;0.10;;;8.10;99.90;;;;;;25405836;23;20203;-62
2022/04/01 05:03:28;;;;;;;0.20;0.10;;;8.00;99.90;;;;;;25382047;23;20410;-62
2022/04/01 05:13:56;;;;;;;0.20;0.10;;;8.00;99.90;;;;;;25405746;23;20200;-63
2022/04/01 05:24:02;;;;;;;0.20;0.10;;;8.00;99.90;;;;;;25402490;23;20236;-63
2022/04/01 05:34:19;;;;;;;0.20;0.10;;;7.80;99.90;;;;;;25403775;23;20203;-64
2022/04/01 05:44:25;;;;;;;2.20;0.87;;;7.50;99.90;;;;;;25402543;23;20183;-62
2022/04/01 05:54:32;;;;;;;0.20;0.10;;;7.50;99.90;;;;;;25372820;23;20160;-64
2022/04/01 06:05:00;;;;;;;0.20;0.13;;;7.50;99.90;;;;;;25394272;23;20186;-65
2022/04/01 06:15:17;;;;;;;0.50;0.43;;;7.90;99.90;;;;;;25392278;23;20206;-64
2022/04/01 06:25:29;;;;;;;0.60;0.40;;;8.30;99.90;;;;;;25396613;23;20206;-64
2022/04/01 06:35:45;;;;;;;0.30;0.30;;;8.20;99.90;;;;;;25399018;23;20159;-63
2022/04/01 06:45:49;;;;;;;0.20;0.10;;;8.50;99.90;;;;;;25371410;23;20488;-64
2022/04/01 06:55:54;;;;;;;0.20;0.10;;;8.60;99.90;;;;;;25395652;23;20167;-65
2022/04/01 07:05:58;;;;;;;0.20;0.10;;;8.70;99.90;;;;;;25403732;23;20202;-64
2022/04/01 07:16:03;;;;;;;0.20;0.20;;;9.00;99.90;;;;;;25376538;23;20263;-64
2022/04/01 07:26:06;;;;;;;0.20;0.10;;;9.30;99.90;;;;;;25405017;23;20428;-65
2022/04/01 07:36:12;;;;;;;0.20;0.10;;;9.60;99.90;;;;;;25377221;23;20191;-62
2022/04/01 07:46:15;;;;;;;0.20;0.10;;;9.80;99.90;;;;;;25406835;23;20202;-64
2022/04/01 07:56:30;;;;;;;0.20;0.10;;;10.00;99.90;;;;;;25402367;23;20171;-63
2022/04/01 08:06:34;;;;;;;0.20;0.10;;;10.20;99.90;;;;;;25377999;23;20183;-63
2022/04/01 08:16:39;;;;;;;0.20;0.10;;;10.30;99.90;;;;;;25406749;23;20206;-63
2022/04/01 08:26:43;;;;;;;0.20;0.10;;;10.60;99.90;;;;;;25395807;23;20214;-63
2022/04/01 08:36:48;;;;;;;0.20;0.10;;;10.60;99.90;;;;;;25391874;23;20233;-63
2022/04/01 08:46:53;;;;;;;0.20;0.10;;;10.90;99.90;;;;;;25389909;23;20188;-64
2022/04/01 08:56:58;;;;;;;0.20;0.13;;;11.20;99.90;;;;;;25388684;23;20487;-70
2022/04/01 09:07:12;;;;;;;0.20;0.10;;;11.20;99.90;;;;;;25390041;23;20192;-69
2022/04/01 09:17:17;;;;;;;0.20;0.10;;;11.80;99.90;;;;;;25383939;23;20214;-70
2022/04/01 09:27:45;;;;;;;0.20;0.10;;;12.10;99.90;;;;;;25358388;23;20217;-75
2022/04/01 09:37:52;;;;;;;0.20;0.10;;;12.20;99.90;;;;;;25386174;23;20171;-79
2022/04/01 09:48:01;;;;;;;0.20;0.10;;;12.60;99.90;;;;;;25385869;23;20482;-73
2022/04/01 09:58:07;;;;;;;0.20;0.10;;;12.80;99.90;;;;;;25384082;23;20171;-74
2022/04/01 10:08:12;;;;;;;0.20;0.10;;;13.20;99.90;;;;;;25390603;23;20199;-72
2022/04/01 10:18:21;;;;;;;0.20;0.10;;;13.40;99.90;;;;;;25363199;23;20203;-76
2022/04/01 10:28:25;;;;;;;0.20;0.10;;;13.50;99.90;;;;;;25384654;23;20458;-74
2022/04/01 10:38:34;;;;;;;0.20;0.10;;;13.80;99.90;;;;;;25385450;23;20195;-71
2022/04/01 10:59:19;;;;;;;0.20;0.10;;;14.40;99.80;;;;;;25384624;23;20255;-62
2022/04/01 11:09:37;;;;;;;0.20;0.10;;;15.10;98.70;;;;;;25382345;23;20223;-61
2022/04/01 11:20:00;;;;;;;0.20;0.10;;;15.10;95.90;;;;;;25362737;23;20179;-63
2022/04/01 11:30:12;;;;;;;0.20;0.10;;;15.70;96.90;;;;;;25388848;23;20507;-64
2022/04/01 11:40:19;;;;;;;0.20;0.10;;;15.40;94.70;;;;;;25386973;23;20167;-64
2022/04/01 11:50:24;;;;;;;0.20;0.10;;;15.70;93.80;;;;;;25391329;23;20203;-62
2022/04/01 12:00:33;;;;;;;0.20;0.10;;;16.70;92.50;;;;;;25391706;23;20156;-63
2022/04/01 12:10:37;;;;;;;0.20;0.10;;;17.20;93.10;;;;;;25387419;23;20187;-62
2022/04/01 12:20:43;;;;;;;0.20;0.10;;;16.50;89.70;;;;;;25363533;23;20215;-62
2022/04/01 12:30:51;;;;;;;0.20;0.10;;;16.90;90.40;;;;;;25353598;23;20207;-63
2022/04/01 12:41:00;;;;;;;0.20;0.10;;;16.40;88.40;;;;;;25379631;23;20251;-63
2022/04/01 12:51:03;;;;;;;0.20;0.10;;;17.20;86.20;;;;;;25387707;23;20187;-63
2022/04/01 13:01:09;;;;;;;0.20;0.10;;;17.20;84.80;;;;;;25364258;23;20202;-63
2022/04/01 13:11:13;;;;;;;0.20;0.10;;;17.40;86.90;;;;;;25394788;23;20243;-63
2022/04/01 13:21:21;;;;;;;0.20;0.10;;;17.50;84.50;;;;;;25369387;23;20202;-62
2022/04/01 13:31:25;;;;;;;0.20;0.10;;;17.70;84.50;;;;;;25395275;23;20203;-63
2022/04/01 13:41:30;;;;;;;0.20;0.10;;;17.90;81.20;;;;;;25389693;23;20178;-63
2022/04/01 13:51:35;;;;;;;0.20;0.10;;;17.50;80.30;;;;;;25386784;23;20224;-63
2022/04/01 14:01:40;;;;;;;0.20;0.10;;;18.50;80.40;;;;;;25386285;23;20243;-63
2022/04/01 14:11:44;;;;;;;0.20;0.10;;;18.10;75.60;;;;;;25355682;23;20226;-62
2022/04/01 14:21:50;;;;;;;0.20;0.10;;;18.30;73.70;;;;;;25388834;23;20164;-62
2022/04/01 14:44:15;;;;;;;0.20;0.10;;;19.10;71.80;;;;;;25463462;23;20274;-63
2022/04/01 14:54:19;;;;;;;0.20;0.10;;;18.60;70.30;;;;;;25388177;23;20183;-62
2022/04/01 15:04:25;;;;;;;0.20;0.10;;;18.50;68.70;;;;;;25388787;23;20174;-64
2022/04/01 15:14:29;;;;;;;0.20;0.10;;;18.50;66.90;;;;;;25383905;23;20200;-62
2022/04/01 15:24:34;;;;;;;3.57;0.50;;;18.40;66.80;;;;;;25391286;23;20168;-63
2022/04/01 15:34:38;;;;;;;0.20;0.10;;;18.90;66.70;;;;;;25394483;23;20201;-63
2022/04/01 15:44:44;;;;;;;0.20;0.10;;;19.10;66.70;;;;;;25396272;23;20239;-63
2022/04/01 15:54:49;;;;;;;0.20;0.10;;;17.70;62.70;;;;;;25399857;23;20195;-65
2022/04/01 16:04:58;;;;;;;0.20;0.17;;;16.50;64.70;;;;;;25366052;23;20183;-63
2022/04/01 16:15:07;;;;;;;0.20;0.10;;;17.00;64.50;;;;;;25394638;23;20199;-64
2022/04/01 16:25:12;;;;;;;0.20;0.10;;;15.70;62.10;;;;;;25370093;23;20164;-64
2022/04/01 16:35:16;;;;;;;0.27;0.20;;;15.50;65.80;;;;;;25392333;23;20191;-63
2022/04/01 16:45:21;;;;;;;0.20;0.10;;;14.90;64.70;;;;;;25396805;23;20203;-63
2022/04/01 16:55:26;;;;;;;0.20;0.10;;;14.80;67.70;;;;;;25394280;23;20671;-62
2022/04/01 17:12:31;;;;;;;0.20;0.10;;;14.50;67.70;;;;;;25366274;23;20187;-65
2022/04/01 17:15:57;;;;;;;0.20;0.10;;;14.30;66.70;;;;;;25390913;23;20221;-63
2022/04/01 17:26:02;;;;;;;0.20;0.10;;;14.20;66.70;;;;;;25391986;23;20248;-62
2022/04/01 17:36:08;;;;;;;0.20;0.10;;;14.00;65.30;;;;;;25389263;23;20274;-64
2022/04/01 17:46:13;;;;;;;0.20;0.10;;;13.20;66.30;;;;;;25391799;23;20218;-63
2022/04/01 17:56:19;;;;;;;0.20;0.10;;;12.40;65.40;;;;;;25362451;23;20340;-63
2022/04/01 18:06:26;;;;;;;0.20;0.10;;;12.10;67.80;;;;;;25389081;23;20160;-63
2022/04/01 18:16:31;;;;;;;0.20;0.10;;;11.70;69.80;;;;;;25389756;23;20214;-66
2022/04/01 18:26:41;;;;;;;0.20;0.10;;;11.50;68.80;;;;;;25386409;23;20255;-63
2022/04/01 18:36:46;;;;;;;0.20;0.10;;;11.40;69.80;;;;;;25389546;23;20182;-62
2022/04/01 18:46:53;;;;;;;0.20;0.10;;;11.30;70.30;;;;;;25389264;23;20202;-64
2022/04/01 18:56:57;;;;;;;0.20;0.10;;;11.00;73.40;;;;;;25397007;23;20175;-63
2022/04/01 19:07:11;;;;;;;0.20;0.10;;;10.90;74.40;;;;;;25398511;23;20184;-62
2022/04/01 19:17:19;;;;;;;0.20;0.10;;;10.70;76.60;;;;;;25401370;23;21254;-62
2022/04/01 19:27:24;;;;;;;0.20;0.10;;;10.60;77.50;;;;;;25398053;23;20279;-63
2022/04/01 19:37:31;;;;;;;0.20;0.10;;;10.40;79.30;;;;;;25398142;23;20236;-62
2022/04/01 19:47:37;;;;;;;0.20;0.10;;;10.30;78.60;;;;;;25397091;23;20218;-62
2022/04/01 19:57:40;;;;;;;0.20;0.10;;;9.90;84.00;;;;;;25395982;23;20179;-63
2022/04/01 20:07:46;;;;;;;0.20;0.10;;;9.70;84.50;;;;;;25398607;23;20193;-62
2022/04/01 20:17:49;;;;;;;0.20;0.10;;;9.60;84.60;;;;;;25398532;23;20209;-65
2022/04/01 20:28:01;;;;;;;0.20;0.10;;;9.80;83.60;;;;;;25395572;23;20186;-62
2022/04/01 20:38:05;;;;;;;0.20;0.10;;;9.70;83.50;;;;;;25398366;23;20176;-62
2022/04/01 20:48:11;;;;;;;0.20;0.10;;;9.40;86.30;;;;;;25373898;23;20204;-62
2022/04/01 20:58:15;;;;;;;0.20;0.10;;;9.30;88.00;;;;;;25395847;23;20159;-62
2022/04/01 21:08:20;;;;;;;0.20;0.10;;;9.20;89.30;;;;;;25396511;23;20184;-62
2022/04/01 21:18:25;;;;;;;0.20;0.10;;;9.00;88.40;;;;;;25395700;23;20253;-62
2022/04/01 21:28:30;;;;;;;0.20;0.10;;;9.00;88.80;;;;;;25396755;23;20191;-63
2022/04/01 21:38:34;;;;;;;0.20;0.10;;;8.80;88.70;;;;;;25394496;23;20449;-61
2022/04/01 21:48:39;;;;;;;0.20;0.10;;;8.80;89.70;;;;;;25395613;23;20195;-62
2022/04/01 21:58:43;;;;;;;0.20;0.10;;;8.70;89.30;;;;;;25395687;23;20182;-64
2022/04/01 22:08:49;;;;;;;0.20;0.10;;;8.60;88.80;;;;;;25393211;23;20218;-64
2022/04/01 22:18:52;;;;;;;0.20;0.10;;;8.60;88.70;;;;;;25386261;23;20211;-63
2022/04/01 22:28:58;;;;;;;0.20;0.10;;;8.50;90.80;;;;;;25388922;23;20219;-64
2022/04/01 22:39:02;;;;;;;0.20;0.10;;;8.10;91.30;;;;;;25393033;23;20178;-61
2022/04/01 22:49:07;;;;;;;0.20;0.10;;;7.80;93.40;;;;;;25375763;23;20246;-62
2022/04/01 22:59:11;;;;;;;0.20;0.10;;;7.60;94.40;;;;;;25374901;23;20239;-63
2022/04/01 23:09:16;;;;;;;0.20;0.10;;;7.60;95.20;;;;;;25401145;23;20272;-61
2022/04/01 23:19:20;;;;;;;0.20;0.10;;;7.50;94.90;;;;;;25374136;23;20195;-61
2022/04/01 23:29:26;;;;;;;0.20;0.10;;;7.40;95.30;;;;;;25401046;23;20220;-61
2022/04/01 23:39:29;;;;;;;0.20;0.10;;;7.40;95.90;;;;;;25404364;23;20376;-62
2022/04/01 23:49:35;;;;;;;0.20;0.10;;;7.40;96.70;;;;;;25408689;23;20203;-63
2022/04/01 23:59:39;;;;;;;0.20;0.10;;;6.90;98.60;;;;;;25409354;23;20186;-62
